sensor_id;sensor_type;location;lat;lon;timestamp;temperature;humidity
12622;DHT22;6376;48.182;-1.644;2023-09-18T00:00:51;20.50;92.80
12622;DHT22;6376;48.182;-1.644;2023-09-18T00:03:20;20.50;92.80
12622;DHT22;6376;48.182;-1.644;2023-09-18T00:05:47;20.50;92.80
12622;DHT22;6376;48.182;-1.644;2023-09-18T00:08:16;20.50;92.80
12622;DHT22;6376;48.182;-1.644;2023-09-18T00:10:46;20.50;92.80
12622;DHT22;6376;48.182;-1.644;2023-09-18T00:13:12;20.50;92.80
12622;DHT22;6376;48.182;-1.644;2023-09-18T00:15:37;20.50;92.90
12622;DHT22;6376;48.182;-1.644;2023-09-18T00:18:04;20.50;92.80
12622;DHT22;6376;48.182;-1.644;2023-09-18T00:20:30;20.50;92.90
12622;DHT22;6376;48.182;-1.644;2023-09-18T00:22:56;20.50;92.90
12622;DHT22;6376;48.182;-1.644;2023-09-18T00:25:22;20.50;92.90
12622;DHT22;6376;48.182;-1.644;2023-09-18T00:27:48;20.50;93.00
12622;DHT22;6376;48.182;-1.644;2023-09-18T00:30:14;20.10;92.90
12622;DHT22;6376;48.182;-1.644;2023-09-18T00:32:40;20.40;93.00
12622;DHT22;6376;48.182;-1.644;2023-09-18T00:35:06;20.40;93.00
12622;DHT22;6376;48.182;-1.644;2023-09-18T00:37:31;20.40;93.10
12622;DHT22;6376;48.182;-1.644;2023-09-18T00:39:57;20.40;93.10
12622;DHT22;6376;48.182;-1.644;2023-09-18T00:42:24;20.40;93.00
12622;DHT22;6376;48.182;-1.644;2023-09-18T00:44:50;20.40;93.10
12622;DHT22;6376;48.182;-1.644;2023-09-18T00:47:16;20.40;93.10
12622;DHT22;6376;48.182;-1.644;2023-09-18T00:49:44;20.40;93.10
12622;DHT22;6376;48.182;-1.644;2023-09-18T00:52:10;20.40;93.10
12622;DHT22;6376;48.182;-1.644;2023-09-18T00:54:37;20.40;93.20
12622;DHT22;6376;48.182;-1.644;2023-09-18T00:57:05;20.40;93.20
12622;DHT22;6376;48.182;-1.644;2023-09-18T00:59:31;20.40;93.20
12622;DHT22;6376;48.182;-1.644;2023-09-18T01:01:56;20.40;93.20
12622;DHT22;6376;48.182;-1.644;2023-09-18T01:04:23;20.40;93.20
12622;DHT22;6376;48.182;-1.644;2023-09-18T01:06:51;20.40;93.10
12622;DHT22;6376;48.182;-1.644;2023-09-18T01:09:19;20.40;93.10
12622;DHT22;6376;48.182;-1.644;2023-09-18T01:14:50;20.40;93.20
12622;DHT22;6376;48.182;-1.644;2023-09-18T01:17:22;20.40;93.20
12622;DHT22;6376;48.182;-1.644;2023-09-18T01:19:48;20.30;93.20
12622;DHT22;6376;48.182;-1.644;2023-09-18T01:22:15;20.40;93.20
12622;DHT22;6376;48.182;-1.644;2023-09-18T01:24:43;20.40;93.30
12622;DHT22;6376;48.182;-1.644;2023-09-18T01:27:11;20.40;93.30
12622;DHT22;6376;48.182;-1.644;2023-09-18T01:29:43;20.40;93.30
12622;DHT22;6376;48.182;-1.644;2023-09-18T01:32:08;20.30;93.30
12622;DHT22;6376;48.182;-1.644;2023-09-18T01:37:33;20.40;93.40
12622;DHT22;6376;48.182;-1.644;2023-09-18T01:40:01;20.40;93.40
12622;DHT22;6376;48.182;-1.644;2023-09-18T01:42:27;20.30;93.30
12622;DHT22;6376;48.182;-1.644;2023-09-18T01:44:53;20.40;93.30
12622;DHT22;6376;48.182;-1.644;2023-09-18T01:47:20;20.40;93.30
12622;DHT22;6376;48.182;-1.644;2023-09-18T01:49:48;20.40;93.30
12622;DHT22;6376;48.182;-1.644;2023-09-18T01:52:14;20.40;93.30
12622;DHT22;6376;48.182;-1.644;2023-09-18T01:54:40;20.40;93.30
12622;DHT22;6376;48.182;-1.644;2023-09-18T01:57:06;20.40;93.30
12622;DHT22;6376;48.182;-1.644;2023-09-18T01:59:35;20.40;93.30
12622;DHT22;6376;48.182;-1.644;2023-09-18T02:02:01;20.40;93.40
12622;DHT22;6376;48.182;-1.644;2023-09-18T02:04:29;20.40;93.50
12622;DHT22;6376;48.182;-1.644;2023-09-18T02:06:56;20.40;93.50
12622;DHT22;6376;48.182;-1.644;2023-09-18T02:09:22;20.40;93.50
12622;DHT22;6376;48.182;-1.644;2023-09-18T02:11:48;20.40;93.40
12622;DHT22;6376;48.182;-1.644;2023-09-18T02:14:14;20.30;93.50
12622;DHT22;6376;48.182;-1.644;2023-09-18T02:16:41;20.30;93.50
12622;DHT22;6376;48.182;-1.644;2023-09-18T02:19:08;20.30;93.40
12622;DHT22;6376;48.182;-1.644;2023-09-18T02:21:36;20.30;93.40
12622;DHT22;6376;48.182;-1.644;2023-09-18T02:24:03;20.30;93.40
12622;DHT22;6376;48.182;-1.644;2023-09-18T02:26:29;20.30;93.50
12622;DHT22;6376;48.182;-1.644;2023-09-18T02:28:57;20.30;93.50
12622;DHT22;6376;48.182;-1.644;2023-09-18T02:31:23;20.30;93.50
12622;DHT22;6376;48.182;-1.644;2023-09-18T02:33:49;20.30;93.50
12622;DHT22;6376;48.182;-1.644;2023-09-18T02:36:15;20.30;93.50
12622;DHT22;6376;48.182;-1.644;2023-09-18T02:38:41;20.30;93.60
12622;DHT22;6376;48.182;-1.644;2023-09-18T02:41:08;20.30;93.60
12622;DHT22;6376;48.182;-1.644;2023-09-18T02:43:34;20.30;93.70
12622;DHT22;6376;48.182;-1.644;2023-09-18T02:45:59;20.30;93.70
12622;DHT22;6376;48.182;-1.644;2023-09-18T02:48:25;20.30;93.80
12622;DHT22;6376;48.182;-1.644;2023-09-18T02:50:50;20.30;93.60
12622;DHT22;6376;48.182;-1.644;2023-09-18T02:53:18;20.30;93.60
12622;DHT22;6376;48.182;-1.644;2023-09-18T02:55:46;20.30;93.60
12622;DHT22;6376;48.182;-1.644;2023-09-18T02:58:11;20.30;93.70
12622;DHT22;6376;48.182;-1.644;2023-09-18T03:00:44;20.30;93.70
12622;DHT22;6376;48.182;-1.644;2023-09-18T03:03:10;20.30;93.60
12622;DHT22;6376;48.182;-1.644;2023-09-18T03:05:36;20.30;93.70
12622;DHT22;6376;48.182;-1.644;2023-09-18T03:08:02;20.30;93.70
12622;DHT22;6376;48.182;-1.644;2023-09-18T03:10:36;20.30;93.70
12622;DHT22;6376;48.182;-1.644;2023-09-18T03:13:03;20.30;93.70
12622;DHT22;6376;48.182;-1.644;2023-09-18T03:15:29;20.20;93.70
12622;DHT22;6376;48.182;-1.644;2023-09-18T03:17:56;20.30;93.80
12622;DHT22;6376;48.182;-1.644;2023-09-18T03:20:23;20.30;93.80
12622;DHT22;6376;48.182;-1.644;2023-09-18T03:22:57;20.30;93.80
12622;DHT22;6376;48.182;-1.644;2023-09-18T03:25:23;20.30;93.70
12622;DHT22;6376;48.182;-1.644;2023-09-18T03:27:51;20.20;93.70
12622;DHT22;6376;48.182;-1.644;2023-09-18T03:30:17;20.20;93.50
12622;DHT22;6376;48.182;-1.644;2023-09-18T03:32:43;20.30;93.50
12622;DHT22;6376;48.182;-1.644;2023-09-18T03:35:09;20.30;93.50
12622;DHT22;6376;48.182;-1.644;2023-09-18T03:37:43;20.20;93.50
12622;DHT22;6376;48.182;-1.644;2023-09-18T03:40:09;20.30;93.60
12622;DHT22;6376;48.182;-1.644;2023-09-18T03:42:35;20.30;93.50
12622;DHT22;6376;48.182;-1.644;2023-09-18T03:45:00;20.30;93.60
12622;DHT22;6376;48.182;-1.644;2023-09-18T03:47:26;20.30;93.60
12622;DHT22;6376;48.182;-1.644;2023-09-18T03:49:52;20.30;93.70
12622;DHT22;6376;48.182;-1.644;2023-09-18T03:52:17;20.30;93.70
12622;DHT22;6376;48.182;-1.644;2023-09-18T03:54:43;20.30;93.70
12622;DHT22;6376;48.182;-1.644;2023-09-18T03:57:08;20.30;93.70
12622;DHT22;6376;48.182;-1.644;2023-09-18T03:59:34;20.30;93.70
12622;DHT22;6376;48.182;-1.644;2023-09-18T04:02:00;20.30;93.80
12622;DHT22;6376;48.182;-1.644;2023-09-18T04:04:25;20.30;93.70
12622;DHT22;6376;48.182;-1.644;2023-09-18T04:06:51;20.30;94.10
12622;DHT22;6376;48.182;-1.644;2023-09-18T04:09:17;20.20;93.80
12622;DHT22;6376;48.182;-1.644;2023-09-18T04:11:43;20.20;93.80
12622;DHT22;6376;48.182;-1.644;2023-09-18T04:14:09;20.20;93.70
12622;DHT22;6376;48.182;-1.644;2023-09-18T04:16:34;20.30;93.70
12622;DHT22;6376;48.182;-1.644;2023-09-18T04:19:05;20.20;93.60
12622;DHT22;6376;48.182;-1.644;2023-09-18T04:21:30;20.20;93.60
12622;DHT22;6376;48.182;-1.644;2023-09-18T04:23:56;20.20;93.60
12622;DHT22;6376;48.182;-1.644;2023-09-18T04:26:24;20.20;93.50
12622;DHT22;6376;48.182;-1.644;2023-09-18T04:28:55;20.30;93.50
12622;DHT22;6376;48.182;-1.644;2023-09-18T04:31:20;20.20;93.50
12622;DHT22;6376;48.182;-1.644;2023-09-18T04:33:46;20.20;93.50
12622;DHT22;6376;48.182;-1.644;2023-09-18T04:36:11;20.20;93.50
12622;DHT22;6376;48.182;-1.644;2023-09-18T04:38:37;20.20;93.50
12622;DHT22;6376;48.182;-1.644;2023-09-18T04:41:03;20.30;93.60
12622;DHT22;6376;48.182;-1.644;2023-09-18T04:43:28;20.20;93.60
12622;DHT22;6376;48.182;-1.644;2023-09-18T04:45:57;20.20;93.50
12622;DHT22;6376;48.182;-1.644;2023-09-18T04:48:22;20.20;93.50
12622;DHT22;6376;48.182;-1.644;2023-09-18T04:50:48;20.20;93.50
12622;DHT22;6376;48.182;-1.644;2023-09-18T04:53:14;20.30;93.50
12622;DHT22;6376;48.182;-1.644;2023-09-18T04:55:40;20.20;93.50
12622;DHT22;6376;48.182;-1.644;2023-09-18T04:58:06;20.20;93.50
12622;DHT22;6376;48.182;-1.644;2023-09-18T05:00:32;20.20;93.50
12622;DHT22;6376;48.182;-1.644;2023-09-18T05:02:59;20.20;93.50
12622;DHT22;6376;48.182;-1.644;2023-09-18T05:05:27;20.20;93.60
12622;DHT22;6376;48.182;-1.644;2023-09-18T05:07:53;20.20;93.70
12622;DHT22;6376;48.182;-1.644;2023-09-18T05:10:19;20.30;93.60
12622;DHT22;6376;48.182;-1.644;2023-09-18T05:12:45;20.20;93.60
12622;DHT22;6376;48.182;-1.644;2023-09-18T05:15:11;20.20;93.60
12622;DHT22;6376;48.182;-1.644;2023-09-18T05:17:43;20.20;93.70
12622;DHT22;6376;48.182;-1.644;2023-09-18T05:20:10;20.20;93.70
12622;DHT22;6376;48.182;-1.644;2023-09-18T05:22:41;20.20;93.80
12622;DHT22;6376;48.182;-1.644;2023-09-18T05:25:08;20.20;93.80
12622;DHT22;6376;48.182;-1.644;2023-09-18T05:27:36;20.20;93.80
12622;DHT22;6376;48.182;-1.644;2023-09-18T05:30:12;20.20;93.80
12622;DHT22;6376;48.182;-1.644;2023-09-18T05:32:39;20.20;93.80
12622;DHT22;6376;48.182;-1.644;2023-09-18T05:35:05;20.20;93.80
12622;DHT22;6376;48.182;-1.644;2023-09-18T05:37:32;20.20;93.80
12622;DHT22;6376;48.182;-1.644;2023-09-18T05:39:58;20.20;93.80
12622;DHT22;6376;48.182;-1.644;2023-09-18T05:42:24;20.20;93.70
12622;DHT22;6376;48.182;-1.644;2023-09-18T05:44:49;20.20;93.80
12622;DHT22;6376;48.182;-1.644;2023-09-18T05:47:15;20.20;93.80
12622;DHT22;6376;48.182;-1.644;2023-09-18T05:49:41;20.20;93.80
12622;DHT22;6376;48.182;-1.644;2023-09-18T05:52:06;20.20;93.80
12622;DHT22;6376;48.182;-1.644;2023-09-18T05:54:32;20.20;93.80
12622;DHT22;6376;48.182;-1.644;2023-09-18T05:56:57;20.20;93.90
12622;DHT22;6376;48.182;-1.644;2023-09-18T05:59:23;20.20;93.80
12622;DHT22;6376;48.182;-1.644;2023-09-18T06:01:49;20.20;93.90
12622;DHT22;6376;48.182;-1.644;2023-09-18T06:04:14;20.20;93.80
12622;DHT22;6376;48.182;-1.644;2023-09-18T06:06:42;20.20;93.80
12622;DHT22;6376;48.182;-1.644;2023-09-18T06:09:08;20.20;93.90
12622;DHT22;6376;48.182;-1.644;2023-09-18T06:11:33;20.20;93.90
12622;DHT22;6376;48.182;-1.644;2023-09-18T06:13:59;20.20;93.90
12622;DHT22;6376;48.182;-1.644;2023-09-18T06:16:25;20.20;93.90
12622;DHT22;6376;48.182;-1.644;2023-09-18T06:18:50;20.20;93.90
12622;DHT22;6376;48.182;-1.644;2023-09-18T06:21:16;20.20;93.90
12622;DHT22;6376;48.182;-1.644;2023-09-18T06:23:42;20.20;93.90
12622;DHT22;6376;48.182;-1.644;2023-09-18T06:26:07;20.20;93.80
12622;DHT22;6376;48.182;-1.644;2023-09-18T06:28:33;20.20;93.80
12622;DHT22;6376;48.182;-1.644;2023-09-18T06:30:58;20.20;93.80
12622;DHT22;6376;48.182;-1.644;2023-09-18T06:33:24;20.20;93.90
12622;DHT22;6376;48.182;-1.644;2023-09-18T06:35:50;20.20;93.80
12622;DHT22;6376;48.182;-1.644;2023-09-18T06:38:17;20.20;93.70
12622;DHT22;6376;48.182;-1.644;2023-09-18T06:40:42;20.20;93.70
12622;DHT22;6376;48.182;-1.644;2023-09-18T06:43:08;20.30;93.70
12622;DHT22;6376;48.182;-1.644;2023-09-18T06:45:34;20.30;93.80
12622;DHT22;6376;48.182;-1.644;2023-09-18T06:47:59;20.20;93.80
12622;DHT22;6376;48.182;-1.644;2023-09-18T06:50:26;20.20;93.70
12622;DHT22;6376;48.182;-1.644;2023-09-18T06:52:51;20.30;93.80
12622;DHT22;6376;48.182;-1.644;2023-09-18T06:55:17;20.20;93.70
12622;DHT22;6376;48.182;-1.644;2023-09-18T06:57:43;20.30;93.70
12622;DHT22;6376;48.182;-1.644;2023-09-18T07:00:09;20.30;93.70
12622;DHT22;6376;48.182;-1.644;2023-09-18T07:02:35;20.30;93.70
12622;DHT22;6376;48.182;-1.644;2023-09-18T07:05:00;20.30;93.60
12622;DHT22;6376;48.182;-1.644;2023-09-18T07:07:26;20.30;93.70
12622;DHT22;6376;48.182;-1.644;2023-09-18T07:09:52;20.20;93.70
12622;DHT22;6376;48.182;-1.644;2023-09-18T07:12:18;20.30;93.60
12622;DHT22;6376;48.182;-1.644;2023-09-18T07:14:45;20.30;93.70
12622;DHT22;6376;48.182;-1.644;2023-09-18T07:17:11;20.30;93.70
12622;DHT22;6376;48.182;-1.644;2023-09-18T07:19:37;20.30;93.60
12622;DHT22;6376;48.182;-1.644;2023-09-18T07:22:02;20.30;93.60
12622;DHT22;6376;48.182;-1.644;2023-09-18T07:24:28;20.30;93.70
12622;DHT22;6376;48.182;-1.644;2023-09-18T07:26:54;20.30;93.70
12622;DHT22;6376;48.182;-1.644;2023-09-18T07:29:20;20.30;93.70
12622;DHT22;6376;48.182;-1.644;2023-09-18T07:31:46;20.30;93.80
12622;DHT22;6376;48.182;-1.644;2023-09-18T07:34:13;20.30;93.70
12622;DHT22;6376;48.182;-1.644;2023-09-18T07:36:39;20.30;93.60
12622;DHT22;6376;48.182;-1.644;2023-09-18T07:39:05;20.30;93.70
12622;DHT22;6376;48.182;-1.644;2023-09-18T07:41:32;20.30;93.70
12622;DHT22;6376;48.182;-1.644;2023-09-18T07:43:58;20.30;93.70
12622;DHT22;6376;48.182;-1.644;2023-09-18T07:46:24;20.30;93.70
12622;DHT22;6376;48.182;-1.644;2023-09-18T07:48:50;20.30;93.70
12622;DHT22;6376;48.182;-1.644;2023-09-18T07:51:16;20.30;93.70
12622;DHT22;6376;48.182;-1.644;2023-09-18T07:53:42;20.30;93.70
12622;DHT22;6376;48.182;-1.644;2023-09-18T07:56:08;20.30;93.60
12622;DHT22;6376;48.182;-1.644;2023-09-18T07:58:34;20.30;93.70
12622;DHT22;6376;48.182;-1.644;2023-09-18T08:01:04;20.30;93.60
12622;DHT22;6376;48.182;-1.644;2023-09-18T08:03:30;20.30;94.00
12622;DHT22;6376;48.182;-1.644;2023-09-18T08:05:56;20.30;93.50
12622;DHT22;6376;48.182;-1.644;2023-09-18T08:08:23;20.30;93.60
12622;DHT22;6376;48.182;-1.644;2023-09-18T08:10:53;20.30;93.60
12622;DHT22;6376;48.182;-1.644;2023-09-18T08:13:19;20.30;93.60
12622;DHT22;6376;48.182;-1.644;2023-09-18T08:15:49;20.30;93.50
12622;DHT22;6376;48.182;-1.644;2023-09-18T08:18:16;20.40;93.50
12622;DHT22;6376;48.182;-1.644;2023-09-18T08:20:42;20.40;93.50
12622;DHT22;6376;48.182;-1.644;2023-09-18T08:23:09;20.40;93.50
12622;DHT22;6376;48.182;-1.644;2023-09-18T08:25:35;20.40;93.30
12622;DHT22;6376;48.182;-1.644;2023-09-18T08:28:01;20.50;93.40
12622;DHT22;6376;48.182;-1.644;2023-09-18T08:30:28;20.50;93.30
12622;DHT22;6376;48.182;-1.644;2023-09-18T08:32:54;20.50;93.30
12622;DHT22;6376;48.182;-1.644;2023-09-18T08:35:20;20.50;93.20
12622;DHT22;6376;48.182;-1.644;2023-09-18T08:37:47;20.50;93.10
12622;DHT22;6376;48.182;-1.644;2023-09-18T08:40:13;20.50;93.00
12622;DHT22;6376;48.182;-1.644;2023-09-18T08:42:44;20.50;93.00
12622;DHT22;6376;48.182;-1.644;2023-09-18T08:45:58;20.50;92.90
12622;DHT22;6376;48.182;-1.644;2023-09-18T08:47:59;20.50;92.80
12622;DHT22;6376;48.182;-1.644;2023-09-18T08:50:25;20.50;93.00
12622;DHT22;6376;48.182;-1.644;2023-09-18T08:52:52;20.60;92.90
12622;DHT22;6376;48.182;-1.644;2023-09-18T08:55:18;20.60;92.80
12622;DHT22;6376;48.182;-1.644;2023-09-18T08:57:44;20.60;92.80
12622;DHT22;6376;48.182;-1.644;2023-09-18T09:00:12;20.60;92.70
12622;DHT22;6376;48.182;-1.644;2023-09-18T09:02:43;20.70;92.60
12622;DHT22;6376;48.182;-1.644;2023-09-18T09:05:08;20.70;92.60
12622;DHT22;6376;48.182;-1.644;2023-09-18T09:07:34;20.70;92.70
12622;DHT22;6376;48.182;-1.644;2023-09-18T09:10:00;20.70;92.60
12622;DHT22;6376;48.182;-1.644;2023-09-18T09:12:49;20.70;92.70
12622;DHT22;6376;48.182;-1.644;2023-09-18T09:15:15;20.70;92.70
12622;DHT22;6376;48.182;-1.644;2023-09-18T09:17:42;20.70;92.80
12622;DHT22;6376;48.182;-1.644;2023-09-18T09:20:12;20.60;92.80
12622;DHT22;6376;48.182;-1.644;2023-09-18T09:22:39;20.60;92.80
12622;DHT22;6376;48.182;-1.644;2023-09-18T09:27:47;20.60;92.70
12622;DHT22;6376;48.182;-1.644;2023-09-18T09:30:19;20.60;92.70
12622;DHT22;6376;48.182;-1.644;2023-09-18T09:32:48;20.60;92.70
12622;DHT22;6376;48.182;-1.644;2023-09-18T09:35:29;20.70;92.60
12622;DHT22;6376;48.182;-1.644;2023-09-18T09:37:59;20.60;92.70
12622;DHT22;6376;48.182;-1.644;2023-09-18T09:40:27;20.60;92.60
12622;DHT22;6376;48.182;-1.644;2023-09-18T09:42:56;20.70;92.60
12622;DHT22;6376;48.182;-1.644;2023-09-18T09:45:31;20.70;92.60
12622;DHT22;6376;48.182;-1.644;2023-09-18T09:48:05;20.70;92.60
12622;DHT22;6376;48.182;-1.644;2023-09-18T09:50:32;20.60;92.30
12622;DHT22;6376;48.182;-1.644;2023-09-18T09:52:58;20.50;92.20
12622;DHT22;6376;48.182;-1.644;2023-09-18T09:55:29;20.40;92.50
12622;DHT22;6376;48.182;-1.644;2023-09-18T10:00:51;20.30;93.00
12622;DHT22;6376;48.182;-1.644;2023-09-18T10:03:19;20.30;93.30
12622;DHT22;6376;48.182;-1.644;2023-09-18T10:05:48;20.30;93.40
12622;DHT22;6376;48.182;-1.644;2023-09-18T10:08:18;20.30;93.50
12622;DHT22;6376;48.182;-1.644;2023-09-18T10:10:52;20.30;93.80
12622;DHT22;6376;48.182;-1.644;2023-09-18T10:15:44;20.50;93.50
12622;DHT22;6376;48.182;-1.644;2023-09-18T10:18:39;20.50;93.30
12622;DHT22;6376;48.182;-1.644;2023-09-18T10:24:28;20.70;92.70
12622;DHT22;6376;48.182;-1.644;2023-09-18T10:26:59;20.80;93.00
12622;DHT22;6376;48.182;-1.644;2023-09-18T10:29:26;20.80;93.00
12622;DHT22;6376;48.182;-1.644;2023-09-18T10:31:53;20.80;93.00
12622;DHT22;6376;48.182;-1.644;2023-09-18T10:34:21;20.80;92.90
12622;DHT22;6376;48.182;-1.644;2023-09-18T10:36:49;20.80;92.70
12622;DHT22;6376;48.182;-1.644;2023-09-18T10:39:15;20.80;92.80
12622;DHT22;6376;48.182;-1.644;2023-09-18T10:41:47;20.80;92.80
12622;DHT22;6376;48.182;-1.644;2023-09-18T10:44:15;20.80;92.60
12622;DHT22;6376;48.182;-1.644;2023-09-18T10:46:42;20.80;92.50
12622;DHT22;6376;48.182;-1.644;2023-09-18T10:49:08;20.80;92.70
12622;DHT22;6376;48.182;-1.644;2023-09-18T10:51:33;20.80;92.60
12622;DHT22;6376;48.182;-1.644;2023-09-18T10:54:00;20.80;92.60
12622;DHT22;6376;48.182;-1.644;2023-09-18T10:56:26;20.80;92.90
12622;DHT22;6376;48.182;-1.644;2023-09-18T10:58:59;20.80;92.70
12622;DHT22;6376;48.182;-1.644;2023-09-18T11:01:27;20.80;92.70
12622;DHT22;6376;48.182;-1.644;2023-09-18T11:03:58;20.80;92.50
12622;DHT22;6376;48.182;-1.644;2023-09-18T11:06:25;20.90;92.50
12622;DHT22;6376;48.182;-1.644;2023-09-18T11:08:59;20.90;92.40
12622;DHT22;6376;48.182;-1.644;2023-09-18T11:11:27;21.00;92.00
12622;DHT22;6376;48.182;-1.644;2023-09-18T11:13:56;21.00;91.90
12622;DHT22;6376;48.182;-1.644;2023-09-18T11:21:30;21.30;91.20
12622;DHT22;6376;48.182;-1.644;2023-09-18T11:24:05;21.30;91.00
12622;DHT22;6376;48.182;-1.644;2023-09-18T11:26:37;21.30;91.10
12622;DHT22;6376;48.182;-1.644;2023-09-18T11:29:07;21.30;91.10
12622;DHT22;6376;48.182;-1.644;2023-09-18T11:31:50;21.40;90.70
12622;DHT22;6376;48.182;-1.644;2023-09-18T11:34:20;21.50;90.60
12622;DHT22;6376;48.182;-1.644;2023-09-18T11:36:46;21.50;90.60
12622;DHT22;6376;48.182;-1.644;2023-09-18T11:39:12;21.40;90.80
12622;DHT22;6376;48.182;-1.644;2023-09-18T11:41:38;21.40;91.00
12622;DHT22;6376;48.182;-1.644;2023-09-18T11:46:48;21.30;90.90
12622;DHT22;6376;48.182;-1.644;2023-09-18T11:49:21;21.30;91.10
12622;DHT22;6376;48.182;-1.644;2023-09-18T11:51:53;21.20;91.10
12622;DHT22;6376;48.182;-1.644;2023-09-18T11:54:19;21.20;91.20
12622;DHT22;6376;48.182;-1.644;2023-09-18T11:56:46;21.20;91.30
12622;DHT22;6376;48.182;-1.644;2023-09-18T11:59:12;21.20;91.30
12622;DHT22;6376;48.182;-1.644;2023-09-18T12:01:38;21.20;91.30
12622;DHT22;6376;48.182;-1.644;2023-09-18T12:04:11;21.10;91.30
12622;DHT22;6376;48.182;-1.644;2023-09-18T12:06:41;21.10;91.40
12622;DHT22;6376;48.182;-1.644;2023-09-18T12:09:07;21.10;91.50
12622;DHT22;6376;48.182;-1.644;2023-09-18T12:11:34;21.10;91.50
12622;DHT22;6376;48.182;-1.644;2023-09-18T12:14:04;21.10;91.50
12622;DHT22;6376;48.182;-1.644;2023-09-18T12:16:31;21.10;91.50
12622;DHT22;6376;48.182;-1.644;2023-09-18T12:19:04;21.10;91.50
12622;DHT22;6376;48.182;-1.644;2023-09-18T12:21:32;21.10;91.50
12622;DHT22;6376;48.182;-1.644;2023-09-18T12:23:58;21.10;91.40
12622;DHT22;6376;48.182;-1.644;2023-09-18T12:26:25;21.10;91.40
12622;DHT22;6376;48.182;-1.644;2023-09-18T12:28:51;21.10;91.40
12622;DHT22;6376;48.182;-1.644;2023-09-18T12:31:17;21.10;91.40
12622;DHT22;6376;48.182;-1.644;2023-09-18T12:33:43;21.10;91.50
12622;DHT22;6376;48.182;-1.644;2023-09-18T12:36:10;21.10;91.40
12622;DHT22;6376;48.182;-1.644;2023-09-18T12:38:37;21.10;91.50
12622;DHT22;6376;48.182;-1.644;2023-09-18T12:41:04;21.10;91.40
12622;DHT22;6376;48.182;-1.644;2023-09-18T12:43:37;21.10;91.40
12622;DHT22;6376;48.182;-1.644;2023-09-18T12:46:05;21.10;91.30
12622;DHT22;6376;48.182;-1.644;2023-09-18T12:48:31;21.10;91.40
12622;DHT22;6376;48.182;-1.644;2023-09-18T12:51:04;21.10;91.30
12622;DHT22;6376;48.182;-1.644;2023-09-18T12:53:30;21.10;91.30
12622;DHT22;6376;48.182;-1.644;2023-09-18T12:56:05;21.10;91.30
12622;DHT22;6376;48.182;-1.644;2023-09-18T12:58:31;21.10;91.30
12622;DHT22;6376;48.182;-1.644;2023-09-18T13:00:57;21.10;91.30
12622;DHT22;6376;48.182;-1.644;2023-09-18T13:03:23;21.10;91.40
12622;DHT22;6376;48.182;-1.644;2023-09-18T13:05:48;21.10;91.40
12622;DHT22;6376;48.182;-1.644;2023-09-18T13:08:22;21.10;91.40
12622;DHT22;6376;48.182;-1.644;2023-09-18T13:10:48;21.10;91.50
12622;DHT22;6376;48.182;-1.644;2023-09-18T13:13:19;21.10;91.50
12622;DHT22;6376;48.182;-1.644;2023-09-18T13:15:45;21.10;91.50
12622;DHT22;6376;48.182;-1.644;2023-09-18T13:18:13;21.10;91.50
12622;DHT22;6376;48.182;-1.644;2023-09-18T13:20:39;21.00;91.50
12622;DHT22;6376;48.182;-1.644;2023-09-18T13:23:06;21.00;91.50
12622;DHT22;6376;48.182;-1.644;2023-09-18T13:25:39;21.10;91.60
12622;DHT22;6376;48.182;-1.644;2023-09-18T13:28:08;21.00;91.50
12622;DHT22;6376;48.182;-1.644;2023-09-18T13:30:36;21.00;91.50
12622;DHT22;6376;48.182;-1.644;2023-09-18T13:33:08;21.00;91.50
12622;DHT22;6376;48.182;-1.644;2023-09-18T13:35:38;21.00;91.50
12622;DHT22;6376;48.182;-1.644;2023-09-18T13:38:05;21.10;91.50
12622;DHT22;6376;48.182;-1.644;2023-09-18T13:40:31;21.00;91.50
12622;DHT22;6376;48.182;-1.644;2023-09-18T13:42:59;21.00;91.50
12622;DHT22;6376;48.182;-1.644;2023-09-18T13:45:24;21.00;91.50
12622;DHT22;6376;48.182;-1.644;2023-09-18T13:47:50;21.00;91.40
12622;DHT22;6376;48.182;-1.644;2023-09-18T13:50:16;21.00;91.40
12622;DHT22;6376;48.182;-1.644;2023-09-18T13:52:41;21.00;91.50
12622;DHT22;6376;48.182;-1.644;2023-09-18T13:55:07;21.00;91.50
12622;DHT22;6376;48.182;-1.644;2023-09-18T13:57:34;21.00;91.50
12622;DHT22;6376;48.182;-1.644;2023-09-18T14:00:02;21.00;91.40
12622;DHT22;6376;48.182;-1.644;2023-09-18T14:02:33;21.00;91.50
12622;DHT22;6376;48.182;-1.644;2023-09-18T14:04:59;21.00;91.30
12622;DHT22;6376;48.182;-1.644;2023-09-18T14:07:24;21.00;91.30
12622;DHT22;6376;48.182;-1.644;2023-09-18T14:09:50;21.00;91.30
12622;DHT22;6376;48.182;-1.644;2023-09-18T14:12:16;21.00;91.30
12622;DHT22;6376;48.182;-1.644;2023-09-18T14:14:42;21.00;91.30
12622;DHT22;6376;48.182;-1.644;2023-09-18T14:17:08;21.00;91.40
12622;DHT22;6376;48.182;-1.644;2023-09-18T14:19:34;21.00;91.40
12622;DHT22;6376;48.182;-1.644;2023-09-18T14:22:01;21.00;91.30
12622;DHT22;6376;48.182;-1.644;2023-09-18T14:24:29;21.00;91.40
12622;DHT22;6376;48.182;-1.644;2023-09-18T14:26:55;21.00;91.30
12622;DHT22;6376;48.182;-1.644;2023-09-18T14:29:21;21.00;91.40
12622;DHT22;6376;48.182;-1.644;2023-09-18T14:31:47;21.00;91.40
12622;DHT22;6376;48.182;-1.644;2023-09-18T14:34:13;21.00;91.40
12622;DHT22;6376;48.182;-1.644;2023-09-18T14:36:39;21.00;91.50
12622;DHT22;6376;48.182;-1.644;2023-09-18T14:39:06;21.00;91.40
12622;DHT22;6376;48.182;-1.644;2023-09-18T14:41:34;21.00;91.40
12622;DHT22;6376;48.182;-1.644;2023-09-18T14:44:00;21.10;91.30
12622;DHT22;6376;48.182;-1.644;2023-09-18T14:46:25;21.00;91.30
12622;DHT22;6376;48.182;-1.644;2023-09-18T14:48:51;21.00;91.30
12622;DHT22;6376;48.182;-1.644;2023-09-18T14:51:17;21.00;91.30
12622;DHT22;6376;48.182;-1.644;2023-09-18T14:53:43;21.00;91.30
12622;DHT22;6376;48.182;-1.644;2023-09-18T14:56:09;21.00;91.30
12622;DHT22;6376;48.182;-1.644;2023-09-18T14:58:34;21.00;91.40
12622;DHT22;6376;48.182;-1.644;2023-09-18T15:01:00;21.10;91.30
12622;DHT22;6376;48.182;-1.644;2023-09-18T15:03:26;21.00;91.30
12622;DHT22;6376;48.182;-1.644;2023-09-18T15:05:52;21.00;91.30
12622;DHT22;6376;48.182;-1.644;2023-09-18T15:08:19;21.00;91.30
12622;DHT22;6376;48.182;-1.644;2023-09-18T15:10:45;21.00;91.30
12622;DHT22;6376;48.182;-1.644;2023-09-18T15:13:11;21.00;91.20
12622;DHT22;6376;48.182;-1.644;2023-09-18T15:15:39;21.00;91.10
12622;DHT22;6376;48.182;-1.644;2023-09-18T15:18:05;21.00;91.60
12622;DHT22;6376;48.182;-1.644;2023-09-18T15:20:31;21.00;91.30
12622;DHT22;6376;48.182;-1.644;2023-09-18T15:22:56;21.00;91.30
12622;DHT22;6376;48.182;-1.644;2023-09-18T15:25:22;21.00;91.30
12622;DHT22;6376;48.182;-1.644;2023-09-18T15:27:48;21.00;91.60
12622;DHT22;6376;48.182;-1.644;2023-09-18T15:30:14;21.00;91.30
12622;DHT22;6376;48.182;-1.644;2023-09-18T15:35:12;21.00;91.30
12622;DHT22;6376;48.182;-1.644;2023-09-18T15:37:37;21.00;91.30
12622;DHT22;6376;48.182;-1.644;2023-09-18T15:40:04;21.00;91.40
12622;DHT22;6376;48.182;-1.644;2023-09-18T15:42:30;21.00;91.30
12622;DHT22;6376;48.182;-1.644;2023-09-18T15:44:56;21.00;91.30
12622;DHT22;6376;48.182;-1.644;2023-09-18T15:47:22;21.00;91.30
12622;DHT22;6376;48.182;-1.644;2023-09-18T15:49:47;21.00;91.30
12622;DHT22;6376;48.182;-1.644;2023-09-18T15:52:13;21.00;91.30
12622;DHT22;6376;48.182;-1.644;2023-09-18T15:54:39;21.00;91.40
12622;DHT22;6376;48.182;-1.644;2023-09-18T15:57:05;21.00;91.30